Time;durP1;ratioP1;P1;durP2;ratioP2;P2;SDS_P1;SDS_P2;PMS_P1;PMS_P2;Temp;Humidity;BMP_temperature;BMP_pressure;BME280_temperature;BME280_humidity;BME280_pressure;Samples;Min_cycle;Max_cycle;Signal;HPM_P1;HPM_P2
2022/12/10 00:01:41;;;;;;;17.43;11.97;;;;;;;-141.59;100.00;61776.25;5051845;28;20198;-79
2022/12/10 00:04:08;;;;;;;16.97;11.57;;;;;;;-141.59;100.00;61776.25;5039287;28;20202;-79
2022/12/10 00:06:38;;;;;;;17.80;11.83;;;;;;;-141.59;100.00;61776.25;5062209;28;20205;-80
2022/12/10 00:09:07;;;;;;;20.63;13.23;;;;;;;-141.59;100.00;61776.25;5068269;28;20204;-79
2022/12/10 00:11:34;;;;;;;17.13;12.20;;;;;;;-141.59;100.00;61776.25;5049712;28;20221;-79
2022/12/10 00:14:02;;;;;;;17.93;12.03;;;;;;;-141.59;100.00;61776.25;5050534;28;20201;-80
2022/12/10 00:16:30;;;;;;;17.70;11.73;;;;;;;-141.59;100.00;61776.25;5048501;28;20230;-79
2022/12/10 00:18:57;;;;;;;16.47;10.57;;;;;;;-141.59;100.00;61776.25;5048121;28;20232;-79
2022/12/10 00:21:27;;;;;;;17.00;11.33;;;;;;;-141.59;100.00;61776.25;5041941;28;20233;-80
2022/12/10 00:23:54;;;;;;;17.13;11.83;;;;;;;-141.59;100.00;61776.25;5039856;28;20228;-79
2022/12/10 00:26:23;;;;;;;17.87;11.53;;;;;;;-141.59;100.00;61776.25;5048497;28;20275;-79
2022/12/10 00:28:52;;;;;;;15.40;10.90;;;;;;;-141.59;100.00;61776.25;5049898;28;20200;-79
2022/12/10 00:31:22;;;;;;;19.33;11.30;;;;;;;-141.59;100.00;61776.25;5043555;28;20236;-80
2022/12/10 00:33:50;;;;;;;16.17;11.17;;;;;;;-141.59;100.00;61776.25;5043984;28;20236;-79
2022/12/10 00:36:19;;;;;;;19.97;12.53;;;;;;;-141.59;100.00;61776.25;5044667;28;20267;-79
2022/12/10 00:38:48;;;;;;;18.53;11.27;;;;;;;-141.59;100.00;61776.25;5058868;28;20314;-79
2022/12/10 00:41:16;;;;;;;15.27;10.80;;;;;;;-141.59;100.00;61776.25;5049880;28;20212;-79
2022/12/10 00:43:43;;;;;;;15.10;10.70;;;;;;;-141.59;100.00;61776.25;5050280;28;20201;-79
2022/12/10 00:46:12;;;;;;;24.37;12.07;;;;;;;-141.59;100.00;61776.25;5047833;28;20244;-79
2022/12/10 00:48:42;;;;;;;17.93;11.07;;;;;;;-141.59;100.00;61776.25;5042962;28;20202;-79
2022/12/10 00:51:11;;;;;;;16.27;11.40;;;;;;;-141.59;100.00;61776.25;5048968;28;20205;-79
2022/12/10 00:53:39;;;;;;;16.93;10.43;;;;;;;-141.59;100.00;61776.25;5044206;28;20202;-79
2022/12/10 00:56:09;;;;;;;17.50;11.17;;;;;;;-141.59;100.00;61776.25;5046992;28;20241;-80
2022/12/10 00:58:38;;;;;;;17.43;12.13;;;;;;;-141.59;100.00;61776.25;5051046;28;20275;-79
2022/12/10 01:01:11;;;;;;;19.37;12.13;;;;;;;-141.59;100.00;61776.25;5045661;28;20260;-80
2022/12/10 01:03:38;;;;;;;17.53;10.77;;;;;;;-141.59;100.00;61776.25;5049046;28;20198;-79
2022/12/10 01:06:16;;;;;;;14.10;10.43;;;;;;;-141.59;100.00;61776.25;5058935;28;20205;-79
2022/12/10 01:08:44;;;;;;;17.53;11.60;;;;;;;-141.59;100.00;61776.25;5048604;28;20303;-79
2022/12/10 01:11:13;;;;;;;15.60;11.57;;;;;;;-141.59;100.00;61776.25;5041151;28;20304;-79
2022/12/10 01:13:41;;;;;;;15.80;11.20;;;;;;;-141.59;100.00;61776.25;5050307;28;20216;-80
2022/12/10 01:16:10;;;;;;;17.10;10.97;;;;;;;-141.59;100.00;61776.25;5042794;28;20256;-80
2022/12/10 01:18:38;;;;;;;19.47;12.43;;;;;;;-141.59;100.00;61776.25;5045933;28;20209;-79
2022/12/10 01:21:12;;;;;;;17.17;11.77;;;;;;;-141.59;100.00;61776.25;5053856;28;20202;-80
2022/12/10 01:23:43;;;;;;;17.50;11.43;;;;;;;-141.59;100.00;61776.25;5045205;28;20210;-79
2022/12/10 01:26:13;;;;;;;16.33;11.37;;;;;;;-141.59;100.00;61776.25;5051553;28;20348;-79
2022/12/10 01:28:41;;;;;;;16.13;11.03;;;;;;;-141.59;100.00;61776.25;5038951;28;20268;-79
2022/12/10 01:31:11;;;;;;;16.70;11.60;;;;;;;-141.59;100.00;61776.25;5043723;28;20198;-79
2022/12/10 01:33:39;;;;;;;15.80;11.00;;;;;;;-141.59;100.00;61776.25;5048567;28;20296;-79
2022/12/10 01:36:08;;;;;;;16.87;10.83;;;;;;;-141.59;100.00;61776.25;5046154;28;20218;-79
2022/12/10 01:38:36;;;;;;;16.63;11.47;;;;;;;-141.59;100.00;61776.25;5049016;28;20296;-80
2022/12/10 01:41:09;;;;;;;16.77;11.23;;;;;;;-141.59;100.00;61776.25;5039940;28;20205;-80
2022/12/10 01:43:55;;;;;;;16.43;11.60;;;;;;;-141.59;100.00;61776.25;5052325;28;20478;-79
2022/12/10 01:46:23;;;;;;;17.23;11.80;;;;;;;-141.59;100.00;61776.25;5038832;28;20276;-79
2022/12/10 01:48:50;;;;;;;18.50;12.03;;;;;;;-141.59;100.00;61776.25;5049388;28;20202;-79
2022/12/10 01:51:19;;;;;;;20.13;12.07;;;;;;;-141.59;100.00;61776.25;5047797;28;20256;-79
2022/12/10 01:53:47;;;;;;;20.73;12.13;;;;;;;-141.59;100.00;61776.25;5046697;28;20205;-79
2022/12/10 01:56:17;;;;;;;19.47;12.50;;;;;;;-141.59;100.00;61776.25;5050125;28;20225;-79
2022/12/10 01:58:46;;;;;;;19.50;12.37;;;;;;;-141.59;100.00;61776.25;5051639;28;20255;-79
2022/12/10 02:01:19;;;;;;;19.87;13.47;;;;;;;-141.59;100.00;61776.25;5047789;28;20213;-79
2022/12/10 02:03:57;;;;;;;19.87;13.53;;;;;;;-141.59;100.00;61776.25;5051432;28;20220;-79
2022/12/10 02:06:35;;;;;;;20.67;13.37;;;;;;;-141.59;100.00;61776.25;5056317;28;20240;-80
2022/12/10 02:09:10;;;;;;;19.97;13.13;;;;;;;-141.59;100.00;61776.25;5070013;28;20265;-79
2022/12/10 02:11:46;;;;;;;20.57;13.03;;;;;;;-141.59;100.00;61776.25;5050433;28;20319;-79
2022/12/10 02:14:20;;;;;;;21.57;13.37;;;;;;;-141.59;100.00;61776.25;5071139;28;20197;-80
2022/12/10 02:16:56;;;;;;;18.43;12.37;;;;;;;-141.59;100.00;61776.25;5066589;28;20220;-79
2022/12/10 02:19:30;;;;;;;18.00;12.87;;;;;;;-141.59;100.00;61776.25;5042213;28;20326;-79
2022/12/10 02:21:59;;;;;;;19.70;13.13;;;;;;;-141.59;100.00;61776.25;5043912;28;20213;-79
2022/12/10 02:24:32;;;;;;;19.10;12.40;;;;;;;-141.59;100.00;61776.25;5052059;28;20190;-80
2022/12/10 02:27:07;;;;;;;19.80;13.73;;;;;;;-141.59;100.00;61776.25;5050559;28;20252;-80
2022/12/10 02:29:39;;;;;;;21.17;13.70;;;;;;;-141.59;100.00;61776.25;5044643;28;20204;-80
2022/12/10 02:32:12;;;;;;;22.97;13.33;;;;;;;-141.59;100.00;61776.25;5048763;28;20206;-80
2022/12/10 02:34:43;;;;;;;19.87;13.13;;;;;;;-141.59;100.00;61776.25;5049855;28;20212;-79
2022/12/10 02:37:17;;;;;;;19.57;12.60;;;;;;;-141.59;100.00;61776.25;5053825;28;20221;-79
2022/12/10 02:39:50;;;;;;;21.37;13.03;;;;;;;-141.59;100.00;61776.25;5050116;28;20201;-80
2022/12/10 02:42:20;;;;;;;17.73;11.97;;;;;;;-141.59;100.00;61776.25;5053671;28;20233;-80
2022/12/10 02:44:50;;;;;;;17.97;12.30;;;;;;;-141.59;100.00;61776.25;5047167;28;20201;-79
2022/12/10 02:47:22;;;;;;;18.73;12.37;;;;;;;-141.59;100.00;61776.25;5070083;28;20205;-80
2022/12/10 02:49:54;;;;;;;18.20;12.00;;;;;;;-141.59;100.00;61776.25;5060034;28;20197;-79
2022/12/10 02:52:22;;;;;;;22.50;13.37;;;;;;;-141.59;100.00;61776.25;5043651;28;20216;-79
2022/12/10 02:54:53;;;;;;;18.70;12.53;;;;;;;-141.59;100.00;61776.25;5046718;28;20206;-80
2022/12/10 02:57:37;;;;;;;24.80;12.53;;;;;;;-141.59;100.00;61776.25;5044498;28;20217;-79
2022/12/10 03:00:16;;;;;;;19.83;12.47;;;;;;;-141.59;100.00;61776.25;5051456;28;20234;-79
2022/12/10 03:03:01;;;;;;;20.40;12.83;;;;;;;-141.59;100.00;61776.25;5045179;28;20229;-80
2022/12/10 03:05:36;;;;;;;20.10;12.40;;;;;;;-141.59;100.00;61776.25;5052674;28;20284;-80
2022/12/10 03:08:10;;;;;;;21.37;13.27;;;;;;;-141.59;100.00;61776.25;5043424;28;20229;-80
2022/12/10 03:10:45;;;;;;;19.77;12.73;;;;;;;-141.59;100.00;61776.25;5047223;28;20229;-79
2022/12/10 03:13:16;;;;;;;20.10;13.00;;;;;;;-141.59;100.00;61776.25;5045835;28;20213;-79
2022/12/10 03:15:47;;;;;;;17.53;10.77;;;;;;;-141.59;100.00;61776.25;5050691;28;20218;-79
2022/12/10 03:18:18;;;;;;;16.50;10.50;;;;;;;-141.59;100.00;61776.25;5049663;28;20225;-79
2022/12/10 03:20:47;;;;;;;16.80;10.37;;;;;;;-141.59;100.00;61776.25;5064640;28;20329;-79
2022/12/10 03:23:18;;;;;;;17.27;12.03;;;;;;;-141.59;100.00;61776.25;5042868;28;20220;-79
2022/12/10 03:25:48;;;;;;;17.10;11.10;;;;;;;-141.59;100.00;61776.25;5049845;28;20207;-80
2022/12/10 03:28:16;;;;;;;13.77;9.70;;;;;;;-141.59;100.00;61776.25;5043857;28;20207;-79
2022/12/10 03:30:47;;;;;;;15.77;10.23;;;;;;;-141.59;100.00;61776.25;5042891;28;20278;-80
2022/12/10 03:33:15;;;;;;;16.67;11.30;;;;;;;-141.59;100.00;61776.25;5061869;28;20274;-79
2022/12/10 03:35:42;;;;;;;18.70;12.17;;;;;;;-141.59;100.00;61776.25;5050626;28;20197;-80
2022/12/10 03:38:11;;;;;;;18.63;11.73;;;;;;;-141.59;100.00;61776.25;5049601;28;20248;-80
2022/12/10 03:40:39;;;;;;;16.50;11.20;;;;;;;-141.59;100.00;61776.25;5052882;28;20208;-80
2022/12/10 03:43:06;;;;;;;16.20;10.93;;;;;;;-141.59;100.00;61776.25;5035920;28;20214;-79
2022/12/10 03:45:33;;;;;;;16.47;10.30;;;;;;;-141.59;100.00;61776.25;5044584;28;20193;-80
2022/12/10 03:48:01;;;;;;;15.70;10.57;;;;;;;-141.59;100.00;61776.25;5050420;28;20218;-80
2022/12/10 03:50:29;;;;;;;16.90;11.37;;;;;;;-141.59;100.00;61776.25;5050133;28;20204;-79
2022/12/10 03:52:56;;;;;;;15.27;9.73;;;;;;;-141.59;100.00;61776.25;5040830;28;20299;-80
2022/12/10 03:55:23;;;;;;;16.77;10.57;;;;;;;-141.59;100.00;61776.25;5051279;28;20205;-80
2022/12/10 03:57:50;;;;;;;15.23;10.30;;;;;;;-141.59;100.00;61776.25;5049903;28;20222;-80
2022/12/10 04:00:18;;;;;;;15.77;10.97;;;;;;;-141.59;100.00;61776.25;5046603;28;20202;-79
2022/12/10 04:02:45;;;;;;;17.53;10.80;;;;;;;-141.59;100.00;61776.25;5046775;28;20209;-79
2022/12/10 04:05:13;;;;;;;15.63;11.00;;;;;;;-141.59;100.00;61776.25;5058053;28;20201;-79
2022/12/10 04:07:40;;;;;;;15.80;10.77;;;;;;;-141.59;100.00;61776.25;5044337;28;20299;-79
2022/12/10 04:10:08;;;;;;;15.90;10.53;;;;;;;-141.59;100.00;61776.25;5045665;28;20229;-79
2022/12/10 04:12:35;;;;;;;15.10;10.33;;;;;;;-141.59;100.00;61776.25;5046047;28;20212;-80
2022/12/10 04:17:47;;;;;;;13.23;9.67;;;;;;;-141.59;100.00;61776.25;5048532;28;20245;-79
2022/12/10 04:28:25;;;;;;;14.07;9.63;;;;;;;-141.59;100.00;61776.25;5063990;28;20197;-79
2022/12/10 04:30:52;;;;;;;11.60;8.87;;;;;;;-141.59;100.00;61776.25;5049808;28;20208;-80
2022/12/10 04:33:19;;;;;;;11.50;8.37;;;;;;;-141.59;100.00;61776.25;5050784;28;20205;-79
2022/12/10 04:35:48;;;;;;;11.57;7.53;;;;;;;-141.59;100.00;61776.25;5034354;28;20198;-79
2022/12/10 04:38:15;;;;;;;13.77;9.03;;;;;;;-141.59;100.00;61776.25;5050722;28;20221;-80
2022/12/10 04:40:42;;;;;;;11.60;8.63;;;;;;;-141.59;100.00;61776.25;5041872;28;20201;-79
2022/12/10 04:43:09;;;;;;;12.87;9.57;;;;;;;-141.59;100.00;61776.25;5047955;28;20205;-80
2022/12/10 04:45:36;;;;;;;12.63;8.47;;;;;;;-141.59;100.00;61776.25;5050206;28;20201;-79
2022/12/10 04:48:03;;;;;;;12.80;8.67;;;;;;;-141.59;100.00;61776.25;5049224;28;20209;-80
2022/12/10 04:50:30;;;;;;;13.23;8.50;;;;;;;-141.59;100.00;61776.25;5053570;28;20212;-79
2022/12/10 04:52:59;;;;;;;13.57;8.20;;;;;;;-141.59;100.00;61776.25;5046892;28;20238;-79
2022/12/10 04:55:26;;;;;;;12.13;8.60;;;;;;;-141.59;100.00;61776.25;5038846;28;20206;-79
2022/12/10 04:57:53;;;;;;;14.07;9.57;;;;;;;-141.59;100.00;61776.25;5062074;28;20278;-80
2022/12/10 05:00:20;;;;;;;14.17;10.00;;;;;;;-141.59;100.00;61776.25;5040772;28;20198;-80
2022/12/10 05:02:50;;;;;;;14.60;9.67;;;;;;;-141.59;100.00;61776.25;5048401;28;20294;-80
2022/12/10 05:05:17;;;;;;;13.53;9.97;;;;;;;-141.59;100.00;61776.25;5045571;28;20198;-79
2022/12/10 05:07:45;;;;;;;14.40;9.50;;;;;;;-141.59;100.00;61776.25;5049823;28;20259;-80
2022/12/10 05:10:13;;;;;;;12.40;9.17;;;;;;;-141.59;100.00;61776.25;5046158;28;20232;-80
2022/12/10 05:12:40;;;;;;;12.83;9.20;;;;;;;-141.59;100.00;61776.25;5064447;28;20206;-80
2022/12/10 05:15:08;;;;;;;11.43;8.37;;;;;;;-141.59;100.00;61776.25;5044724;28;20206;-80
2022/12/10 05:17:36;;;;;;;12.37;8.80;;;;;;;-141.59;100.00;61776.25;5068260;28;20326;-80
2022/12/10 05:20:04;;;;;;;12.87;9.10;;;;;;;-141.59;100.00;61776.25;5047188;28;20226;-79
2022/12/10 05:25:17;;;;;;;12.97;8.50;;;;;;;-141.59;100.00;61776.25;5046083;28;20210;-80
2022/12/10 05:27:44;;;;;;;12.07;8.77;;;;;;;-141.59;100.00;61776.25;5049744;28;20289;-80
2022/12/10 05:30:11;;;;;;;12.70;8.47;;;;;;;-141.59;100.00;61776.25;5052019;28;20209;-80
2022/12/10 05:32:39;;;;;;;10.30;7.43;;;;;;;-141.59;100.00;61776.25;5054008;28;20190;-80
2022/12/10 05:35:09;;;;;;;11.83;7.77;;;;;;;-141.59;100.00;61776.25;5058083;28;20224;-81
2022/12/10 05:37:36;;;;;;;11.13;8.27;;;;;;;-141.59;100.00;61776.25;5046964;28;20217;-81
2022/12/10 05:40:06;;;;;;;10.13;7.30;;;;;;;-141.59;100.00;61776.25;5049629;28;20289;-81
2022/12/10 05:42:34;;;;;;;8.93;7.10;;;;;;;-141.59;100.00;61776.25;5039470;28;20214;-81
2022/12/10 05:45:01;;;;;;;10.23;7.37;;;;;;;-141.59;100.00;61776.25;5050941;28;20209;-81
2022/12/10 05:47:28;;;;;;;12.10;7.43;;;;;;;-141.59;100.00;61776.25;5056958;28;20205;-81
2022/12/10 05:49:55;;;;;;;11.90;7.53;;;;;;;-141.59;100.00;61776.25;5064553;28;20197;-80
2022/12/10 05:52:23;;;;;;;8.70;6.77;;;;;;;-141.59;100.00;61776.25;5051231;28;20393;-81
2022/12/10 05:54:49;;;;;;;11.03;7.30;;;;;;;-141.59;100.00;61776.25;5043464;28;20206;-81
2022/12/10 05:57:17;;;;;;;8.17;6.67;;;;;;;-141.59;100.00;61776.25;5052622;28;20225;-80
2022/12/10 05:59:45;;;;;;;8.60;6.83;;;;;;;-141.59;100.00;61776.25;5045085;28;20190;-81
2022/12/10 06:02:12;;;;;;;7.20;5.90;;;;;;;-141.59;100.00;61776.25;5045495;28;20213;-80
2022/12/10 06:04:39;;;;;;;7.87;6.20;;;;;;;-141.59;100.00;61776.25;5067264;28;20197;-80
2022/12/10 06:07:06;;;;;;;8.37;5.97;;;;;;;-141.59;100.00;61776.25;5052762;28;20216;-80
2022/12/10 06:09:33;;;;;;;7.53;6.40;;;;;;;-141.59;100.00;61776.25;5050512;28;20194;-80
2022/12/10 06:12:00;;;;;;;8.13;5.50;;;;;;;-141.59;100.00;61776.25;5052100;28;20208;-80
2022/12/10 06:14:27;;;;;;;10.23;6.63;;;;;;;-141.59;100.00;61776.25;5067241;28;20285;-81
2022/12/10 06:16:56;;;;;;;8.53;6.47;;;;;;;-141.59;100.00;61776.25;5049232;28;20199;-80
2022/12/10 06:19:23;;;;;;;7.60;5.97;;;;;;;-141.59;100.00;61776.25;5064972;28;20233;-80
2022/12/10 06:21:50;;;;;;;7.30;5.37;;;;;;;-141.59;100.00;61776.25;5055980;28;20209;-80
2022/12/10 06:24:17;;;;;;;7.00;5.20;;;;;;;-141.59;100.00;61776.25;5047441;28;20216;-81
2022/12/10 06:26:44;;;;;;;6.47;5.33;;;;;;;-141.59;100.00;61776.25;5051781;28;20210;-81
2022/12/10 06:29:11;;;;;;;7.07;5.97;;;;;;;-141.59;100.00;61776.25;5069039;28;20213;-80
2022/12/10 06:31:38;;;;;;;6.53;5.20;;;;;;;-141.59;100.00;61776.25;5050627;28;20205;-81
2022/12/10 06:34:06;;;;;;;7.43;5.37;;;;;;;-141.59;100.00;61776.25;5044031;28;20213;-81
2022/12/10 06:36:33;;;;;;;7.63;5.40;;;;;;;-141.59;100.00;61776.25;5054229;28;20235;-81
2022/12/10 06:39:00;;;;;;;7.87;5.50;;;;;;;-141.59;100.00;61776.25;5050926;28;20251;-81
2022/12/10 06:41:27;;;;;;;10.83;5.67;;;;;;;-141.59;100.00;61776.25;5060426;28;20197;-81
2022/12/10 06:43:58;;;;;;;8.57;5.50;;;;;;;-141.59;100.00;61776.25;5062368;28;20198;-80
2022/12/10 06:46:26;;;;;;;6.17;5.00;;;;;;;-141.59;100.00;61776.25;5045917;28;20216;-81
2022/12/10 06:48:53;;;;;;;7.63;5.17;;;;;;;-141.59;100.00;61776.25;5054277;28;20203;-81
2022/12/10 06:51:22;;;;;;;7.50;5.67;;;;;;;-141.59;100.00;61776.25;5049226;28;20237;-81
2022/12/10 06:53:49;;;;;;;4.73;3.93;;;;;;;-141.59;100.00;61776.25;5049720;28;20259;-81
2022/12/10 06:56:19;;;;;;;5.47;4.70;;;;;;;-141.59;100.00;61776.25;5053900;28;20206;-81
2022/12/10 06:58:47;;;;;;;5.37;4.70;;;;;;;-141.59;100.00;61776.25;5046535;28;20226;-81
2022/12/10 07:01:17;;;;;;;6.67;4.87;;;;;;;-141.59;100.00;61776.25;5042390;28;20206;-81
2022/12/10 07:03:44;;;;;;;5.53;4.03;;;;;;;-141.59;100.00;61776.25;5047839;28;20207;-81
2022/12/10 07:06:12;;;;;;;8.90;6.40;;;;;;;-141.59;100.00;61776.25;5055408;28;20217;-81
2022/12/10 07:08:41;;;;;;;8.50;6.90;;;;;;;-141.59;100.00;61776.25;5067077;28;20193;-81
2022/12/10 07:11:10;;;;;;;6.20;4.57;;;;;;;-141.59;100.00;61776.25;5048382;28;20300;-81
2022/12/10 07:13:38;;;;;;;9.80;6.77;;;;;;;-141.59;100.00;61776.25;5047762;28;20206;-81
2022/12/10 07:16:13;;;;;;;12.03;8.67;;;;;;;-141.59;100.00;61776.25;5040455;28;20204;-81
2022/12/10 07:18:41;;;;;;;10.57;7.93;;;;;;;-141.59;100.00;61776.25;5048720;28;20259;-81
2022/12/10 07:21:14;;;;;;;11.43;9.07;;;;;;;-141.59;100.00;61776.25;5049175;28;20267;-81
2022/12/10 07:23:43;;;;;;;14.77;9.00;;;;;;;-141.59;100.00;61776.25;5051093;28;20262;-81
2022/12/10 07:26:10;;;;;;;14.40;9.37;;;;;;;-141.59;100.00;61776.25;5040367;28;20212;-81
2022/12/10 07:28:37;;;;;;;12.97;9.10;;;;;;;-141.59;100.00;61776.25;5047666;28;20205;-81
2022/12/10 07:31:07;;;;;;;12.10;8.63;;;;;;;-141.59;100.00;61776.25;5040666;28;20296;-81
2022/12/10 07:33:34;;;;;;;13.07;8.53;;;;;;;-141.59;100.00;61776.25;5050500;28;20202;-81
2022/12/10 07:36:06;;;;;;;16.80;8.23;;;;;;;-141.59;100.00;61776.25;5047487;28;20294;-81
2022/12/10 07:38:33;;;;;;;10.77;8.20;;;;;;;-141.59;100.00;61776.25;5041300;28;20226;-81
2022/12/10 07:41:06;;;;;;;13.27;8.20;;;;;;;-141.59;100.00;61776.25;5048637;28;20207;-81
2022/12/10 07:43:34;;;;;;;11.90;8.30;;;;;;;-141.59;100.00;61776.25;5051949;28;20205;-81
2022/12/10 07:46:05;;;;;;;13.13;8.23;;;;;;;-141.59;100.00;61776.25;5044780;28;20196;-81
2022/12/10 07:48:32;;;;;;;9.20;7.63;;;;;;;-141.59;100.00;61776.25;5067279;28;20201;-81
2022/12/10 07:50:59;;;;;;;12.10;8.97;;;;;;;-141.59;100.00;61776.25;5047880;28;20211;-81
2022/12/10 07:53:27;;;;;;;12.67;8.53;;;;;;;-141.59;100.00;61776.25;5044871;28;20236;-81
2022/12/10 07:55:54;;;;;;;13.73;8.63;;;;;;;-141.59;100.00;61776.25;5042697;28;20212;-81
2022/12/10 07:58:22;;;;;;;10.03;7.50;;;;;;;-141.59;100.00;61776.25;5044942;28;20225;-81
2022/12/10 08:00:49;;;;;;;18.97;11.80;;;;;;;-141.59;100.00;61776.25;5036805;28;20210;-81
2022/12/10 08:03:16;;;;;;;15.87;10.43;;;;;;;-141.59;100.00;61776.25;5044141;28;20220;-81
2022/12/10 08:05:43;;;;;;;20.90;15.97;;;;;;;-141.59;100.00;61776.25;5052288;28;20198;-81
2022/12/10 08:08:11;;;;;;;14.87;11.40;;;;;;;-141.59;100.00;61776.25;5051417;28;20216;-81
2022/12/10 08:10:39;;;;;;;11.80;9.07;;;;;;;-141.59;100.00;61776.25;5044382;28;20266;-80
2022/12/10 08:13:07;;;;;;;11.60;9.00;;;;;;;-141.59;100.00;61776.25;5047994;28;20216;-81
2022/12/10 08:15:36;;;;;;;12.47;8.23;;;;;;;-141.59;100.00;61776.25;5048252;28;20209;-81
2022/12/10 08:18:03;;;;;;;13.63;8.90;;;;;;;-141.59;100.00;61776.25;5043973;28;20229;-81
2022/12/10 08:20:30;;;;;;;14.97;10.77;;;;;;;-141.59;100.00;61776.25;5050274;28;20378;-81
2022/12/10 08:22:58;;;;;;;14.20;10.90;;;;;;;-141.59;100.00;61776.25;5049521;28;20233;-79
2022/12/10 08:25:25;;;;;;;15.53;9.07;;;;;;;-141.59;100.00;61776.25;5046576;28;20236;-79
2022/12/10 08:27:52;;;;;;;12.27;8.00;;;;;;;-141.59;100.00;61776.25;5062891;28;20203;-81
2022/12/10 08:30:19;;;;;;;19.23;11.00;;;;;;;-141.59;100.00;61776.25;5047736;28;20230;-81
2022/12/10 08:32:48;;;;;;;23.23;13.80;;;;;;;-141.59;100.00;61776.25;5051598;28;20223;-81
2022/12/10 08:35:15;;;;;;;21.43;12.73;;;;;;;-141.59;100.00;61776.25;5044060;28;20211;-81
2022/12/10 08:37:42;;;;;;;12.50;8.33;;;;;;;-141.59;100.00;61776.25;5065139;28;20247;-81
2022/12/10 08:40:11;;;;;;;16.27;9.80;;;;;;;-141.59;100.00;61776.25;5049160;28;20232;-81
2022/12/10 08:42:38;;;;;;;13.13;8.43;;;;;;;-141.59;100.00;61776.25;5044261;28;20213;-81
2022/12/10 08:45:09;;;;;;;13.47;8.93;;;;;;;-141.59;100.00;61776.25;5049395;28;20198;-81
2022/12/10 08:47:36;;;;;;;9.87;7.20;;;;;;;-141.59;100.00;61776.25;5044237;28;20214;-81
2022/12/10 08:50:08;;;;;;;12.03;7.63;;;;;;;-141.59;100.00;61776.25;5059295;28;20206;-81
2022/12/10 08:52:35;;;;;;;9.30;6.80;;;;;;;-141.59;100.00;61776.25;5044223;28;20363;-81
2022/12/10 08:55:02;;;;;;;11.93;7.37;;;;;;;-141.59;100.00;61776.25;5047677;28;20215;-81
2022/12/10 08:57:29;;;;;;;10.93;7.60;;;;;;;-141.59;100.00;61776.25;5064604;28;20585;-81
2022/12/10 08:59:56;;;;;;;7.97;6.00;;;;;;;-141.59;100.00;61776.25;5046809;28;20217;-81
2022/12/10 09:02:23;;;;;;;8.77;6.20;;;;;;;-141.59;100.00;61776.25;5038482;28;20208;-81
2022/12/10 09:04:51;;;;;;;6.43;5.07;;;;;;;-141.59;100.00;61776.25;5043143;28;20197;-81
2022/12/10 09:07:20;;;;;;;8.60;5.33;;;;;;;-141.59;100.00;61776.25;5050802;28;20213;-81
2022/12/10 09:09:48;;;;;;;7.20;5.10;;;;;;;-141.59;100.00;61776.25;5039437;28;20283;-81
2022/12/10 09:12:16;;;;;;;4.63;3.80;;;;;;;-141.59;100.00;61776.25;5055578;28;20201;-81
2022/12/10 09:14:43;;;;;;;5.13;3.70;;;;;;;-141.59;100.00;61776.25;5053358;28;20216;-81
2022/12/10 09:17:10;;;;;;;4.27;3.50;;;;;;;-141.59;100.00;61776.25;5065685;28;20237;-81
2022/12/10 09:19:37;;;;;;;4.33;3.67;;;;;;;-141.59;100.00;61776.25;5046689;28;20229;-81
2022/12/10 09:22:05;;;;;;;6.30;3.97;;;;;;;-141.59;100.00;61776.25;5052314;28;20202;-81
2022/12/10 09:24:33;;;;;;;5.83;3.80;;;;;;;-141.59;100.00;61776.25;5053990;28;20213;-81
2022/12/10 09:27:01;;;;;;;4.93;3.53;;;;;;;-141.59;100.00;61776.25;5050084;28;20237;-81
2022/12/10 09:29:29;;;;;;;5.47;3.50;;;;;;;-141.59;100.00;61776.25;5045520;28;20239;-81
2022/12/10 09:31:57;;;;;;;6.00;3.60;;;;;;;-141.59;100.00;61776.25;5059846;28;20205;-79
2022/12/10 09:34:24;;;;;;;5.17;3.77;;;;;;;-141.59;100.00;61776.25;5051468;28;20266;-81
2022/12/10 09:36:51;;;;;;;5.60;4.87;;;;;;;-141.59;100.00;61776.25;5050243;28;20208;-81
2022/12/10 09:39:18;;;;;;;4.80;3.70;;;;;;;-141.59;100.00;61776.25;5056382;28;20542;-81
2022/12/10 09:42:09;;;;;;;4.73;4.00;;;;;;;-141.59;100.00;61776.25;5052994;28;20212;-81
2022/12/10 09:44:47;;;;;;;4.90;4.10;;;;;;;-141.59;100.00;61776.25;5047451;28;20232;-81
2022/12/10 09:47:15;;;;;;;5.13;3.70;;;;;;;-141.59;100.00;61776.25;5051812;28;20271;-81
2022/12/10 09:49:55;;;;;;;4.57;3.87;;;;;;;-141.59;100.00;61776.25;5055943;28;20189;-82
2022/12/10 09:52:25;;;;;;;5.57;3.90;;;;;;;-141.59;100.00;61776.25;5060394;28;20209;-82
2022/12/10 09:54:56;;;;;;;5.47;3.90;;;;;;;-141.59;100.00;61776.25;5064534;28;20205;-82
2022/12/10 09:57:30;;;;;;;5.23;3.90;;;;;;;-141.59;100.00;61776.25;5049886;28;20207;-81
2022/12/10 10:00:16;;;;;;;4.40;3.63;;;;;;;-141.59;100.00;61776.25;5051449;28;20227;-80
2022/12/10 10:02:44;;;;;;;4.83;3.83;;;;;;;-141.59;100.00;61776.25;5045377;28;20202;-80
2022/12/10 10:05:14;;;;;;;6.20;4.50;;;;;;;-141.59;100.00;61776.25;5045438;28;20212;-80
2022/12/10 10:07:46;;;;;;;7.33;5.23;;;;;;;-141.59;100.00;61776.25;5050586;28;20231;-80
2022/12/10 10:10:25;;;;;;;7.93;5.63;;;;;;;-141.59;100.00;61776.25;5046121;28;20237;-80
2022/12/10 10:12:57;;;;;;;8.97;6.03;;;;;;;-141.59;100.00;61776.25;5061785;28;20189;-80
2022/12/10 10:15:30;;;;;;;9.57;6.17;;;;;;;-141.59;100.00;61776.25;5059070;28;20209;-80
2022/12/10 10:18:02;;;;;;;8.50;5.43;;;;;;;-141.59;100.00;61776.25;5048170;28;20218;-81
2022/12/10 10:20:31;;;;;;;4.90;4.10;;;;;;;-141.59;100.00;61776.25;5050080;28;20319;-80
2022/12/10 10:23:00;;;;;;;5.97;3.80;;;;;;;-141.59;100.00;61776.25;5065390;28;20202;-80
2022/12/10 10:25:28;;;;;;;4.50;3.97;;;;;;;-141.59;100.00;61776.25;5066832;28;20201;-81
2022/12/10 10:27:57;;;;;;;5.90;3.63;;;;;;;-141.59;100.00;61776.25;5073441;28;20193;-80
2022/12/10 10:30:25;;;;;;;4.23;3.33;;;;;;;-141.59;100.00;61776.25;5043282;28;20276;-81
2022/12/10 10:32:54;;;;;;;5.87;3.30;;;;;;;-141.59;100.00;61776.25;5042418;28;20212;-81
2022/12/10 10:35:28;;;;;;;4.67;3.60;;;;;;;-141.59;100.00;61776.25;5038992;28;20197;-81
2022/12/10 10:37:59;;;;;;;4.47;3.50;;;;;;;-141.59;100.00;61776.25;5045756;28;20212;-81
2022/12/10 10:40:29;;;;;;;6.77;3.40;;;;;;;-141.59;100.00;61776.25;5043319;28;20217;-81
2022/12/10 10:43:00;;;;;;;4.97;3.20;;;;;;;-141.59;100.00;61776.25;5056484;28;20308;-80
2022/12/10 10:45:37;;;;;;;5.07;3.70;;;;;;;-141.59;100.00;61776.25;5045585;28;20259;-81
2022/12/10 10:48:08;;;;;;;5.33;4.00;;;;;;;-141.59;100.00;61776.25;5051863;28;20211;-81
2022/12/10 10:50:42;;;;;;;4.27;3.37;;;;;;;-141.59;100.00;61776.25;5064212;28;20235;-80
2022/12/10 10:53:28;;;;;;;6.20;4.00;;;;;;;-141.59;100.00;61776.25;5055766;28;20629;-80
2022/12/10 10:55:58;;;;;;;5.27;3.80;;;;;;;-141.59;100.00;61776.25;5041248;28;20216;-80
2022/12/10 10:58:27;;;;;;;6.43;4.33;;;;;;;-141.59;100.00;61776.25;5047513;28;20205;-80
2022/12/10 11:00:58;;;;;;;6.10;4.37;;;;;;;-141.59;100.00;61776.25;5045451;28;20197;-81
2022/12/10 11:03:26;;;;;;;5.83;4.60;;;;;;;-141.59;100.00;61776.25;5045198;28;20213;-81
2022/12/10 11:05:54;;;;;;;5.70;4.43;;;;;;;-141.59;100.00;61776.25;5045482;28;20340;-81
2022/12/10 11:08:22;;;;;;;6.03;4.87;;;;;;;-141.59;100.00;61776.25;5042434;28;20268;-80
2022/12/10 11:10:51;;;;;;;6.63;4.57;;;;;;;-141.59;100.00;61776.25;5065353;28;20217;-80
2022/12/10 11:13:29;;;;;;;7.03;4.90;;;;;;;-141.59;100.00;61776.25;5047806;28;20216;-80
2022/12/10 11:16:03;;;;;;;5.60;4.70;;;;;;;-141.59;100.00;61776.25;5047120;28;20200;-81
2022/12/10 11:18:37;;;;;;;7.40;5.10;;;;;;;-141.59;100.00;61776.25;5048493;28;20414;-81
2022/12/10 11:21:07;;;;;;;7.43;5.40;;;;;;;-141.59;100.00;61776.25;5076664;28;20209;-80
2022/12/10 11:23:40;;;;;;;8.30;5.20;;;;;;;-141.59;100.00;61776.25;5048205;28;20208;-81
2022/12/10 11:26:20;;;;;;;6.33;4.93;;;;;;;-141.59;100.00;61776.25;5048191;28;20231;-79